sensor_id;sensor_type;location;lat;lon;timestamp;P1;durP1;ratioP1;P2;durP2;ratioP2
17727;SDS011;8984;49.268;12.302;2023-12-20T00:01:11;81.30;;;34.43;;
17727;SDS011;8984;49.268;12.302;2023-12-20T00:03:38;43.20;;;20.37;;
17727;SDS011;8984;49.268;12.302;2023-12-20T00:06:05;225.60;;;76.40;;
17727;SDS011;8984;49.268;12.302;2023-12-20T00:08:31;52.57;;;24.23;;
17727;SDS011;8984;49.268;12.302;2023-12-20T00:10:59;74.20;;;32.27;;
17727;SDS011;8984;49.268;12.302;2023-12-20T00:13:26;39.20;;;20.80;;
17727;SDS011;8984;49.268;12.302;2023-12-20T00:15:53;53.47;;;23.10;;
17727;SDS011;8984;49.268;12.302;2023-12-20T00:18:20;47.07;;;21.57;;
17727;SDS011;8984;49.268;12.302;2023-12-20T00:20:46;40.90;;;20.40;;
17727;SDS011;8984;49.268;12.302;2023-12-20T00:23:13;29.27;;;17.07;;
17727;SDS011;8984;49.268;12.302;2023-12-20T00:25:40;28.10;;;15.63;;
17727;SDS011;8984;49.268;12.302;2023-12-20T00:28:08;29.93;;;14.93;;
17727;SDS011;8984;49.268;12.302;2023-12-20T00:30:34;32.17;;;17.77;;
17727;SDS011;8984;49.268;12.302;2023-12-20T00:33:01;30.67;;;16.37;;
17727;SDS011;8984;49.268;12.302;2023-12-20T00:35:28;28.93;;;15.93;;
17727;SDS011;8984;49.268;12.302;2023-12-20T00:37:55;17.57;;;11.47;;
17727;SDS011;8984;49.268;12.302;2023-12-20T00:40:21;16.53;;;10.83;;
17727;SDS011;8984;49.268;12.302;2023-12-20T00:42:48;12.63;;;8.93;;
17727;SDS011;8984;49.268;12.302;2023-12-20T00:45:16;12.23;;;9.10;;
17727;SDS011;8984;49.268;12.302;2023-12-20T00:47:43;11.47;;;8.20;;
17727;SDS011;8984;49.268;12.302;2023-12-20T00:50:10;10.10;;;7.20;;
17727;SDS011;8984;49.268;12.302;2023-12-20T00:52:37;8.13;;;6.83;;
17727;SDS011;8984;49.268;12.302;2023-12-20T00:55:04;13.03;;;7.47;;
17727;SDS011;8984;49.268;12.302;2023-12-20T00:57:31;8.90;;;7.00;;
17727;SDS011;8984;49.268;12.302;2023-12-20T00:59:58;9.67;;;7.47;;
17727;SDS011;8984;49.268;12.302;2023-12-20T01:02:26;9.90;;;8.47;;
17727;SDS011;8984;49.268;12.302;2023-12-20T01:04:52;10.10;;;7.27;;
17727;SDS011;8984;49.268;12.302;2023-12-20T01:07:19;11.07;;;7.87;;
17727;SDS011;8984;49.268;12.302;2023-12-20T01:09:46;10.23;;;7.90;;
17727;SDS011;8984;49.268;12.302;2023-12-20T01:12:13;9.30;;;7.83;;
17727;SDS011;8984;49.268;12.302;2023-12-20T01:14:40;9.77;;;8.53;;
17727;SDS011;8984;49.268;12.302;2023-12-20T01:17:07;8.50;;;6.87;;
17727;SDS011;8984;49.268;12.302;2023-12-20T01:19:36;8.30;;;6.90;;
17727;SDS011;8984;49.268;12.302;2023-12-20T01:22:02;11.33;;;7.87;;
17727;SDS011;8984;49.268;12.302;2023-12-20T01:24:30;10.00;;;7.80;;
17727;SDS011;8984;49.268;12.302;2023-12-20T01:26:57;9.60;;;7.10;;
17727;SDS011;8984;49.268;12.302;2023-12-20T01:29:23;9.47;;;7.57;;
17727;SDS011;8984;49.268;12.302;2023-12-20T01:31:50;8.27;;;7.13;;
17727;SDS011;8984;49.268;12.302;2023-12-20T01:34:17;10.17;;;7.90;;
17727;SDS011;8984;49.268;12.302;2023-12-20T01:36:45;7.70;;;6.40;;
17727;SDS011;8984;49.268;12.302;2023-12-20T01:39:12;8.90;;;7.10;;
17727;SDS011;8984;49.268;12.302;2023-12-20T01:41:39;10.00;;;7.87;;
17727;SDS011;8984;49.268;12.302;2023-12-20T01:44:06;8.63;;;7.10;;
17727;SDS011;8984;49.268;12.302;2023-12-20T01:46:32;8.13;;;6.83;;
17727;SDS011;8984;49.268;12.302;2023-12-20T01:48:59;10.30;;;7.20;;
17727;SDS011;8984;49.268;12.302;2023-12-20T01:51:26;8.80;;;6.70;;
17727;SDS011;8984;49.268;12.302;2023-12-20T01:53:55;10.33;;;7.10;;
17727;SDS011;8984;49.268;12.302;2023-12-20T01:56:23;8.73;;;7.60;;
17727;SDS011;8984;49.268;12.302;2023-12-20T01:58:50;8.97;;;6.73;;
17727;SDS011;8984;49.268;12.302;2023-12-20T02:01:17;8.50;;;7.33;;
17727;SDS011;8984;49.268;12.302;2023-12-20T02:03:44;9.83;;;7.17;;
17727;SDS011;8984;49.268;12.302;2023-12-20T02:06:12;8.70;;;6.80;;
17727;SDS011;8984;49.268;12.302;2023-12-20T02:08:38;8.10;;;6.97;;
17727;SDS011;8984;49.268;12.302;2023-12-20T02:11:06;9.83;;;7.37;;
17727;SDS011;8984;49.268;12.302;2023-12-20T02:13:34;7.93;;;6.90;;
17727;SDS011;8984;49.268;12.302;2023-12-20T02:16:01;9.20;;;7.77;;
17727;SDS011;8984;49.268;12.302;2023-12-20T02:18:28;7.57;;;6.77;;
17727;SDS011;8984;49.268;12.302;2023-12-20T02:20:55;9.30;;;6.60;;
17727;SDS011;8984;49.268;12.302;2023-12-20T02:23:23;8.10;;;6.47;;
17727;SDS011;8984;49.268;12.302;2023-12-20T02:25:49;9.13;;;7.33;;
17727;SDS011;8984;49.268;12.302;2023-12-20T02:28:16;8.77;;;7.47;;
17727;SDS011;8984;49.268;12.302;2023-12-20T02:30:43;8.93;;;6.87;;
17727;SDS011;8984;49.268;12.302;2023-12-20T02:33:10;9.70;;;7.17;;
17727;SDS011;8984;49.268;12.302;2023-12-20T02:35:39;11.50;;;8.30;;
17727;SDS011;8984;49.268;12.302;2023-12-20T02:38:06;10.30;;;7.97;;
17727;SDS011;8984;49.268;12.302;2023-12-20T02:40:34;9.70;;;7.77;;
17727;SDS011;8984;49.268;12.302;2023-12-20T02:43:01;10.33;;;8.17;;
17727;SDS011;8984;49.268;12.302;2023-12-20T02:45:28;10.57;;;8.77;;
17727;SDS011;8984;49.268;12.302;2023-12-20T02:47:55;11.43;;;8.90;;
17727;SDS011;8984;49.268;12.302;2023-12-20T02:50:22;10.90;;;8.57;;
17727;SDS011;8984;49.268;12.302;2023-12-20T02:52:49;10.03;;;8.60;;
17727;SDS011;8984;49.268;12.302;2023-12-20T02:55:16;11.37;;;8.73;;
17727;SDS011;8984;49.268;12.302;2023-12-20T02:57:44;11.07;;;8.87;;
17727;SDS011;8984;49.268;12.302;2023-12-20T03:00:11;11.43;;;9.00;;
17727;SDS011;8984;49.268;12.302;2023-12-20T03:02:38;11.67;;;9.17;;
17727;SDS011;8984;49.268;12.302;2023-12-20T03:05:05;10.90;;;9.23;;
17727;SDS011;8984;49.268;12.302;2023-12-20T03:07:32;15.50;;;11.47;;
17727;SDS011;8984;49.268;12.302;2023-12-20T03:09:59;14.73;;;9.70;;
17727;SDS011;8984;49.268;12.302;2023-12-20T03:12:26;12.63;;;9.53;;
17727;SDS011;8984;49.268;12.302;2023-12-20T03:14:54;10.17;;;9.00;;
17727;SDS011;8984;49.268;12.302;2023-12-20T03:17:22;10.03;;;8.67;;
17727;SDS011;8984;49.268;12.302;2023-12-20T03:20:04;11.20;;;9.53;;
17727;SDS011;8984;49.268;12.302;2023-12-20T03:22:36;13.83;;;10.27;;
17727;SDS011;8984;49.268;12.302;2023-12-20T03:25:21;14.03;;;10.00;;
17727;SDS011;8984;49.268;12.302;2023-12-20T03:27:59;13.90;;;10.93;;
17727;SDS011;8984;49.268;12.302;2023-12-20T03:30:31;12.40;;;10.40;;
17727;SDS011;8984;49.268;12.302;2023-12-20T03:33:02;12.43;;;9.70;;
17727;SDS011;8984;49.268;12.302;2023-12-20T03:35:31;12.80;;;10.17;;
17727;SDS011;8984;49.268;12.302;2023-12-20T03:38:11;12.77;;;10.07;;
17727;SDS011;8984;49.268;12.302;2023-12-20T03:43:24;10.43;;;9.30;;
17727;SDS011;8984;49.268;12.302;2023-12-20T03:46:02;13.90;;;11.07;;
17727;SDS011;8984;49.268;12.302;2023-12-20T03:48:44;15.90;;;11.60;;
17727;SDS011;8984;49.268;12.302;2023-12-20T03:51:23;16.30;;;11.03;;
17727;SDS011;8984;49.268;12.302;2023-12-20T03:54:19;14.03;;;10.63;;
17727;SDS011;8984;49.268;12.302;2023-12-20T03:56:50;13.43;;;10.10;;
17727;SDS011;8984;49.268;12.302;2023-12-20T03:59:27;15.40;;;11.43;;
17727;SDS011;8984;49.268;12.302;2023-12-20T04:02:01;12.63;;;10.03;;
17727;SDS011;8984;49.268;12.302;2023-12-20T04:04:31;11.20;;;9.80;;
17727;SDS011;8984;49.268;12.302;2023-12-20T04:07:05;12.67;;;10.47;;
17727;SDS011;8984;49.268;12.302;2023-12-20T04:09:33;13.00;;;10.97;;
17727;SDS011;8984;49.268;12.302;2023-12-20T04:12:06;14.83;;;11.80;;
17727;SDS011;8984;49.268;12.302;2023-12-20T04:14:35;11.40;;;9.70;;
17727;SDS011;8984;49.268;12.302;2023-12-20T04:17:09;10.80;;;8.93;;
17727;SDS011;8984;49.268;12.302;2023-12-20T04:19:41;9.37;;;8.00;;
17727;SDS011;8984;49.268;12.302;2023-12-20T04:22:11;12.17;;;9.27;;
17727;SDS011;8984;49.268;12.302;2023-12-20T04:24:49;13.10;;;9.27;;
17727;SDS011;8984;49.268;12.302;2023-12-20T04:27:27;9.27;;;7.77;;
17727;SDS011;8984;49.268;12.302;2023-12-20T04:30:04;15.17;;;9.03;;
17727;SDS011;8984;49.268;12.302;2023-12-20T04:32:36;10.37;;;8.17;;
17727;SDS011;8984;49.268;12.302;2023-12-20T04:35:09;10.70;;;7.70;;
17727;SDS011;8984;49.268;12.302;2023-12-20T04:37:47;10.10;;;8.37;;
17727;SDS011;8984;49.268;12.302;2023-12-20T04:40:15;9.47;;;7.17;;
17727;SDS011;8984;49.268;12.302;2023-12-20T04:42:48;10.13;;;8.37;;
17727;SDS011;8984;49.268;12.302;2023-12-20T04:45:16;10.03;;;7.73;;
17727;SDS011;8984;49.268;12.302;2023-12-20T04:47:49;10.83;;;8.67;;
17727;SDS011;8984;49.268;12.302;2023-12-20T04:50:20;11.20;;;8.37;;
17727;SDS011;8984;49.268;12.302;2023-12-20T04:52:58;11.33;;;8.07;;
17727;SDS011;8984;49.268;12.302;2023-12-20T04:55:29;8.73;;;7.40;;
17727;SDS011;8984;49.268;12.302;2023-12-20T04:57:57;10.33;;;7.63;;
17727;SDS011;8984;49.268;12.302;2023-12-20T05:00:28;9.67;;;7.97;;
17727;SDS011;8984;49.268;12.302;2023-12-20T05:03:04;8.93;;;7.43;;
17727;SDS011;8984;49.268;12.302;2023-12-20T05:05:35;9.03;;;7.43;;
17727;SDS011;8984;49.268;12.302;2023-12-20T05:08:27;9.43;;;7.03;;
17727;SDS011;8984;49.268;12.302;2023-12-20T05:11:11;8.40;;;6.83;;
17727;SDS011;8984;49.268;12.302;2023-12-20T05:14:15;8.63;;;6.57;;
17727;SDS011;8984;49.268;12.302;2023-12-20T05:16:58;8.33;;;6.40;;
17727;SDS011;8984;49.268;12.302;2023-12-20T05:19:56;7.77;;;6.43;;
17727;SDS011;8984;49.268;12.302;2023-12-20T05:22:36;6.17;;;5.57;;
17727;SDS011;8984;49.268;12.302;2023-12-20T05:25:12;6.77;;;5.47;;
17727;SDS011;8984;49.268;12.302;2023-12-20T05:27:44;7.37;;;5.67;;
17727;SDS011;8984;49.268;12.302;2023-12-20T05:30:12;7.10;;;5.67;;
17727;SDS011;8984;49.268;12.302;2023-12-20T05:32:40;7.40;;;5.90;;
17727;SDS011;8984;49.268;12.302;2023-12-20T05:35:16;6.90;;;5.47;;
17727;SDS011;8984;49.268;12.302;2023-12-20T05:37:54;7.07;;;5.97;;
17727;SDS011;8984;49.268;12.302;2023-12-20T05:40:25;7.83;;;6.07;;
17727;SDS011;8984;49.268;12.302;2023-12-20T05:42:59;10.10;;;7.80;;
17727;SDS011;8984;49.268;12.302;2023-12-20T05:45:27;7.87;;;6.47;;
17727;SDS011;8984;49.268;12.302;2023-12-20T05:47:55;8.87;;;6.20;;
17727;SDS011;8984;49.268;12.302;2023-12-20T05:50:27;6.70;;;5.47;;
17727;SDS011;8984;49.268;12.302;2023-12-20T05:52:55;5.03;;;4.53;;
17727;SDS011;8984;49.268;12.302;2023-12-20T05:55:25;5.67;;;4.70;;
17727;SDS011;8984;49.268;12.302;2023-12-20T05:57:52;6.03;;;4.87;;
17727;SDS011;8984;49.268;12.302;2023-12-20T06:00:20;5.93;;;5.00;;
17727;SDS011;8984;49.268;12.302;2023-12-20T06:02:53;7.63;;;5.50;;
17727;SDS011;8984;49.268;12.302;2023-12-20T06:05:22;8.43;;;5.73;;
17727;SDS011;8984;49.268;12.302;2023-12-20T06:10:37;5.27;;;4.47;;
17727;SDS011;8984;49.268;12.302;2023-12-20T06:13:08;5.30;;;4.23;;
17727;SDS011;8984;49.268;12.302;2023-12-20T06:15:38;5.63;;;3.83;;
17727;SDS011;8984;49.268;12.302;2023-12-20T06:18:06;5.10;;;3.20;;
17727;SDS011;8984;49.268;12.302;2023-12-20T06:20:44;4.73;;;4.10;;
17727;SDS011;8984;49.268;12.302;2023-12-20T06:26:03;3.33;;;2.80;;
17727;SDS011;8984;49.268;12.302;2023-12-20T06:28:33;3.77;;;3.40;;
17727;SDS011;8984;49.268;12.302;2023-12-20T06:31:01;3.50;;;3.20;;
17727;SDS011;8984;49.268;12.302;2023-12-20T06:33:29;3.83;;;3.53;;
17727;SDS011;8984;49.268;12.302;2023-12-20T06:35:58;7.50;;;5.07;;
17727;SDS011;8984;49.268;12.302;2023-12-20T06:38:29;4.50;;;3.90;;
17727;SDS011;8984;49.268;12.302;2023-12-20T06:41:25;3.40;;;3.10;;
17727;SDS011;8984;49.268;12.302;2023-12-20T06:43:52;5.20;;;4.73;;
17727;SDS011;8984;49.268;12.302;2023-12-20T06:46:19;3.00;;;2.77;;
17727;SDS011;8984;49.268;12.302;2023-12-20T06:48:46;2.60;;;2.40;;
17727;SDS011;8984;49.268;12.302;2023-12-20T06:51:13;2.77;;;2.57;;
17727;SDS011;8984;49.268;12.302;2023-12-20T06:53:41;2.73;;;2.53;;
17727;SDS011;8984;49.268;12.302;2023-12-20T06:56:09;2.33;;;2.13;;
17727;SDS011;8984;49.268;12.302;2023-12-20T06:58:38;3.33;;;2.33;;
17727;SDS011;8984;49.268;12.302;2023-12-20T07:01:05;4.30;;;3.83;;
17727;SDS011;8984;49.268;12.302;2023-12-20T07:03:37;3.43;;;3.13;;
17727;SDS011;8984;49.268;12.302;2023-12-20T07:06:04;2.90;;;2.70;;
17727;SDS011;8984;49.268;12.302;2023-12-20T07:08:30;2.80;;;2.50;;
17727;SDS011;8984;49.268;12.302;2023-12-20T07:10:57;2.90;;;2.70;;
17727;SDS011;8984;49.268;12.302;2023-12-20T07:13:24;3.70;;;3.40;;
17727;SDS011;8984;49.268;12.302;2023-12-20T07:15:52;3.03;;;2.63;;
17727;SDS011;8984;49.268;12.302;2023-12-20T07:18:19;3.00;;;2.77;;
17727;SDS011;8984;49.268;12.302;2023-12-20T07:20:46;4.00;;;2.67;;
17727;SDS011;8984;49.268;12.302;2023-12-20T07:23:13;2.97;;;2.67;;
17727;SDS011;8984;49.268;12.302;2023-12-20T07:25:40;2.40;;;2.10;;
17727;SDS011;8984;49.268;12.302;2023-12-20T07:28:07;3.43;;;2.43;;
17727;SDS011;8984;49.268;12.302;2023-12-20T07:30:33;2.30;;;2.10;;
17727;SDS011;8984;49.268;12.302;2023-12-20T07:33:02;2.60;;;2.40;;
17727;SDS011;8984;49.268;12.302;2023-12-20T07:35:29;2.90;;;2.70;;
17727;SDS011;8984;49.268;12.302;2023-12-20T07:37:58;2.87;;;2.67;;
17727;SDS011;8984;49.268;12.302;2023-12-20T07:40:25;4.13;;;3.07;;
17727;SDS011;8984;49.268;12.302;2023-12-20T07:42:52;2.90;;;2.70;;
17727;SDS011;8984;49.268;12.302;2023-12-20T07:45:22;4.47;;;3.00;;
17727;SDS011;8984;49.268;12.302;2023-12-20T07:47:49;2.43;;;2.23;;
17727;SDS011;8984;49.268;12.302;2023-12-20T07:50:18;4.27;;;2.30;;
17727;SDS011;8984;49.268;12.302;2023-12-20T07:52:49;7.13;;;3.17;;
17727;SDS011;8984;49.268;12.302;2023-12-20T07:55:18;3.97;;;3.47;;
17727;SDS011;8984;49.268;12.302;2023-12-20T07:57:46;9.70;;;7.63;;
17727;SDS011;8984;49.268;12.302;2023-12-20T08:00:14;2.43;;;2.23;;
17727;SDS011;8984;49.268;12.302;2023-12-20T08:02:43;2.57;;;2.37;;
17727;SDS011;8984;49.268;12.302;2023-12-20T08:05:13;3.03;;;2.73;;
17727;SDS011;8984;49.268;12.302;2023-12-20T08:07:49;2.30;;;2.10;;
17727;SDS011;8984;49.268;12.302;2023-12-20T08:10:17;3.03;;;2.77;;
17727;SDS011;8984;49.268;12.302;2023-12-20T08:12:46;2.60;;;2.40;;
17727;SDS011;8984;49.268;12.302;2023-12-20T08:15:17;3.60;;;2.77;;
17727;SDS011;8984;49.268;12.302;2023-12-20T08:17:46;3.83;;;3.43;;
17727;SDS011;8984;49.268;12.302;2023-12-20T08:20:13;2.50;;;2.30;;
17727;SDS011;8984;49.268;12.302;2023-12-20T08:22:44;3.10;;;2.80;;
17727;SDS011;8984;49.268;12.302;2023-12-20T08:25:15;3.43;;;3.10;;
17727;SDS011;8984;49.268;12.302;2023-12-20T08:27:43;4.57;;;3.37;;
17727;SDS011;8984;49.268;12.302;2023-12-20T08:30:20;2.73;;;2.53;;
17727;SDS011;8984;49.268;12.302;2023-12-20T08:32:57;3.77;;;3.47;;
17727;SDS011;8984;49.268;12.302;2023-12-20T08:35:27;2.90;;;2.70;;
17727;SDS011;8984;49.268;12.302;2023-12-20T08:38:06;3.10;;;2.80;;
17727;SDS011;8984;49.268;12.302;2023-12-20T08:40:36;2.53;;;2.33;;
17727;SDS011;8984;49.268;12.302;2023-12-20T08:43:08;2.53;;;2.07;;
17727;SDS011;8984;49.268;12.302;2023-12-20T08:45:43;2.10;;;2.00;;
17727;SDS011;8984;49.268;12.302;2023-12-20T08:48:13;3.13;;;2.20;;
17727;SDS011;8984;49.268;12.302;2023-12-20T08:51:01;9.37;;;8.37;;
17727;SDS011;8984;49.268;12.302;2023-12-20T08:53:39;2.90;;;2.70;;
17727;SDS011;8984;49.268;12.302;2023-12-20T08:56:13;3.23;;;2.93;;
17727;SDS011;8984;49.268;12.302;2023-12-20T08:58:43;2.40;;;2.20;;
17727;SDS011;8984;49.268;12.302;2023-12-20T09:01:14;2.60;;;2.40;;
17727;SDS011;8984;49.268;12.302;2023-12-20T09:03:45;3.43;;;3.17;;
17727;SDS011;8984;49.268;12.302;2023-12-20T09:06:16;3.43;;;3.13;;
17727;SDS011;8984;49.268;12.302;2023-12-20T09:09:03;2.60;;;2.40;;
17727;SDS011;8984;49.268;12.302;2023-12-20T09:11:49;4.13;;;3.83;;
17727;SDS011;8984;49.268;12.302;2023-12-20T09:14:34;3.40;;;3.10;;
17727;SDS011;8984;49.268;12.302;2023-12-20T09:17:04;3.40;;;3.10;;
17727;SDS011;8984;49.268;12.302;2023-12-20T09:19:36;3.47;;;3.17;;
17727;SDS011;8984;49.268;12.302;2023-12-20T09:22:17;2.90;;;2.70;;
17727;SDS011;8984;49.268;12.302;2023-12-20T09:24:49;3.23;;;2.70;;
17727;SDS011;8984;49.268;12.302;2023-12-20T09:27:29;4.20;;;3.90;;
17727;SDS011;8984;49.268;12.302;2023-12-20T09:29:57;3.30;;;3.00;;
17727;SDS011;8984;49.268;12.302;2023-12-20T09:32:24;3.50;;;3.20;;
17727;SDS011;8984;49.268;12.302;2023-12-20T09:34:51;3.30;;;3.00;;
17727;SDS011;8984;49.268;12.302;2023-12-20T09:37:31;3.60;;;3.17;;
17727;SDS011;8984;49.268;12.302;2023-12-20T09:40:06;4.30;;;3.90;;
17727;SDS011;8984;49.268;12.302;2023-12-20T09:42:38;3.80;;;3.30;;
17727;SDS011;8984;49.268;12.302;2023-12-20T09:45:14;5.73;;;4.00;;
17727;SDS011;8984;49.268;12.302;2023-12-20T09:47:42;3.50;;;3.20;;
17727;SDS011;8984;49.268;12.302;2023-12-20T09:50:14;4.60;;;4.20;;
17727;SDS011;8984;49.268;12.302;2023-12-20T09:52:57;3.40;;;3.10;;
17727;SDS011;8984;49.268;12.302;2023-12-20T09:55:44;3.50;;;3.20;;
17727;SDS011;8984;49.268;12.302;2023-12-20T09:58:12;4.40;;;3.70;;
17727;SDS011;8984;49.268;12.302;2023-12-20T10:00:40;8.67;;;7.97;;
17727;SDS011;8984;49.268;12.302;2023-12-20T10:03:08;4.43;;;3.30;;
17727;SDS011;8984;49.268;12.302;2023-12-20T10:05:38;3.73;;;3.37;;
17727;SDS011;8984;49.268;12.302;2023-12-20T10:08:23;3.50;;;2.87;;
17727;SDS011;8984;49.268;12.302;2023-12-20T10:10:57;3.30;;;3.00;;
17727;SDS011;8984;49.268;12.302;2023-12-20T10:13:27;3.23;;;2.60;;
17727;SDS011;8984;49.268;12.302;2023-12-20T10:15:56;3.03;;;2.70;;
17727;SDS011;8984;49.268;12.302;2023-12-20T10:18:23;2.77;;;2.57;;
17727;SDS011;8984;49.268;12.302;2023-12-20T10:20:52;2.63;;;2.40;;
17727;SDS011;8984;49.268;12.302;2023-12-20T10:23:20;2.93;;;2.63;;
17727;SDS011;8984;49.268;12.302;2023-12-20T10:26:00;4.10;;;2.67;;
17727;SDS011;8984;49.268;12.302;2023-12-20T10:28:33;2.57;;;2.30;;
17727;SDS011;8984;49.268;12.302;2023-12-20T10:31:05;2.60;;;2.40;;
17727;SDS011;8984;49.268;12.302;2023-12-20T10:33:49;2.80;;;2.60;;
17727;SDS011;8984;49.268;12.302;2023-12-20T10:36:22;2.37;;;2.23;;
17727;SDS011;8984;49.268;12.302;2023-12-20T10:38:52;2.60;;;2.40;;
17727;SDS011;8984;49.268;12.302;2023-12-20T10:41:26;2.90;;;2.70;;
17727;SDS011;8984;49.268;12.302;2023-12-20T10:44:03;5.00;;;4.40;;
17727;SDS011;8984;49.268;12.302;2023-12-20T10:46:43;2.60;;;2.40;;
17727;SDS011;8984;49.268;12.302;2023-12-20T10:49:16;2.87;;;2.63;;
17727;SDS011;8984;49.268;12.302;2023-12-20T10:51:46;2.73;;;2.53;;
17727;SDS011;8984;49.268;12.302;2023-12-20T10:54:15;2.07;;;1.93;;
17727;SDS011;8984;49.268;12.302;2023-12-20T10:56:53;2.43;;;2.07;;
17727;SDS011;8984;49.268;12.302;2023-12-20T10:59:39;4.63;;;1.90;;
17727;SDS011;8984;49.268;12.302;2023-12-20T11:02:15;2.30;;;2.10;;
17727;SDS011;8984;49.268;12.302;2023-12-20T11:04:49;1.93;;;1.83;;
17727;SDS011;8984;49.268;12.302;2023-12-20T11:07:23;2.50;;;2.13;;
17727;SDS011;8984;49.268;12.302;2023-12-20T11:10:13;2.77;;;1.90;;
17727;SDS011;8984;49.268;12.302;2023-12-20T11:16:02;4.57;;;4.00;;
17727;SDS011;8984;49.268;12.302;2023-12-20T11:18:39;3.10;;;2.60;;
17727;SDS011;8984;49.268;12.302;2023-12-20T11:21:14;2.93;;;2.50;;
17727;SDS011;8984;49.268;12.302;2023-12-20T11:23:57;3.37;;;2.20;;
17727;SDS011;8984;49.268;12.302;2023-12-20T11:26:34;4.87;;;2.10;;
17727;SDS011;8984;49.268;12.302;2023-12-20T11:37:49;6.43;;;2.30;;
17727;SDS011;8984;49.268;12.302;2023-12-20T11:40:30;2.30;;;2.10;;
17727;SDS011;8984;49.268;12.302;2023-12-20T11:43:31;3.50;;;1.97;;
17727;SDS011;8984;49.268;12.302;2023-12-20T11:49:24;3.77;;;2.30;;
17727;SDS011;8984;49.268;12.302;2023-12-20T11:52:22;3.53;;;2.23;;
17727;SDS011;8984;49.268;12.302;2023-12-20T11:54:57;5.17;;;2.17;;
17727;SDS011;8984;49.268;12.302;2023-12-20T11:57:29;2.80;;;2.00;;
17727;SDS011;8984;49.268;12.302;2023-12-20T11:59:59;4.27;;;2.20;;
17727;SDS011;8984;49.268;12.302;2023-12-20T12:02:40;7.23;;;4.50;;
17727;SDS011;8984;49.268;12.302;2023-12-20T12:05:26;9.13;;;5.37;;
17727;SDS011;8984;49.268;12.302;2023-12-20T12:08:04;10.40;;;5.53;;
17727;SDS011;8984;49.268;12.302;2023-12-20T12:10:36;10.30;;;6.57;;
17727;SDS011;8984;49.268;12.302;2023-12-20T12:13:08;6.87;;;3.40;;
17727;SDS011;8984;49.268;12.302;2023-12-20T12:15:45;5.53;;;3.17;;
17727;SDS011;8984;49.268;12.302;2023-12-20T12:18:35;7.07;;;3.70;;
17727;SDS011;8984;49.268;12.302;2023-12-20T12:21:11;4.50;;;2.80;;
17727;SDS011;8984;49.268;12.302;2023-12-20T12:24:07;5.70;;;2.40;;
17727;SDS011;8984;49.268;12.302;2023-12-20T12:26:49;3.60;;;2.00;;
17727;SDS011;8984;49.268;12.302;2023-12-20T12:29:31;5.23;;;2.63;;
17727;SDS011;8984;49.268;12.302;2023-12-20T12:32:04;5.03;;;2.20;;
17727;SDS011;8984;49.268;12.302;2023-12-20T12:34:42;6.20;;;2.47;;
17727;SDS011;8984;49.268;12.302;2023-12-20T12:40:40;4.60;;;2.20;;
17727;SDS011;8984;49.268;12.302;2023-12-20T12:43:26;5.43;;;3.07;;
17727;SDS011;8984;49.268;12.302;2023-12-20T12:46:01;7.37;;;2.17;;
17727;SDS011;8984;49.268;12.302;2023-12-20T12:48:34;3.50;;;1.97;;
17727;SDS011;8984;49.268;12.302;2023-12-20T12:51:16;3.87;;;2.30;;
17727;SDS011;8984;49.268;12.302;2023-12-20T12:53:55;2.90;;;2.23;;
17727;SDS011;8984;49.268;12.302;2023-12-20T12:56:46;6.33;;;2.27;;
17727;SDS011;8984;49.268;12.302;2023-12-20T12:59:23;6.73;;;2.30;;
17727;SDS011;8984;49.268;12.302;2023-12-20T13:01:52;8.87;;;5.60;;
17727;SDS011;8984;49.268;12.302;2023-12-20T13:04:20;5.17;;;2.67;;
17727;SDS011;8984;49.268;12.302;2023-12-20T13:06:49;4.87;;;2.30;;
17727;SDS011;8984;49.268;12.302;2023-12-20T13:09:18;3.17;;;2.00;;
17727;SDS011;8984;49.268;12.302;2023-12-20T13:11:54;4.33;;;2.13;;
17727;SDS011;8984;49.268;12.302;2023-12-20T13:14:31;4.97;;;2.50;;
17727;SDS011;8984;49.268;12.302;2023-12-20T13:17:15;6.10;;;3.40;;
17727;SDS011;8984;49.268;12.302;2023-12-20T13:19:43;3.93;;;2.27;;
17727;SDS011;8984;49.268;12.302;2023-12-20T13:22:16;4.30;;;2.37;;
17727;SDS011;8984;49.268;12.302;2023-12-20T13:24:59;4.70;;;3.27;;
17727;SDS011;8984;49.268;12.302;2023-12-20T13:30:21;3.97;;;2.27;;
17727;SDS011;8984;49.268;12.302;2023-12-20T13:32:54;4.47;;;3.03;;
17727;SDS011;8984;49.268;12.302;2023-12-20T13:35:35;5.37;;;2.20;;
17727;SDS011;8984;49.268;12.302;2023-12-20T13:38:04;6.00;;;3.57;;
17727;SDS011;8984;49.268;12.302;2023-12-20T13:40:40;6.40;;;2.43;;
17727;SDS011;8984;49.268;12.302;2023-12-20T13:43:18;6.43;;;2.80;;
17727;SDS011;8984;49.268;12.302;2023-12-20T13:45:47;6.30;;;3.30;;
17727;SDS011;8984;49.268;12.302;2023-12-20T13:48:18;3.33;;;2.40;;
17727;SDS011;8984;49.268;12.302;2023-12-20T13:50:48;4.70;;;2.43;;
17727;SDS011;8984;49.268;12.302;2023-12-20T13:53:17;3.83;;;2.50;;
17727;SDS011;8984;49.268;12.302;2023-12-20T13:55:45;7.13;;;4.93;;
17727;SDS011;8984;49.268;12.302;2023-12-20T13:58:18;5.57;;;3.63;;
17727;SDS011;8984;49.268;12.302;2023-12-20T14:00:53;4.13;;;2.40;;
17727;SDS011;8984;49.268;12.302;2023-12-20T14:03:23;4.03;;;2.40;;
17727;SDS011;8984;49.268;12.302;2023-12-20T14:05:53;3.47;;;2.50;;
17727;SDS011;8984;49.268;12.302;2023-12-20T14:08:23;4.03;;;2.50;;
17727;SDS011;8984;49.268;12.302;2023-12-20T14:10:53;7.90;;;2.90;;
17727;SDS011;8984;49.268;12.302;2023-12-20T14:13:52;6.10;;;3.43;;
17727;SDS011;8984;49.268;12.302;2023-12-20T14:16:23;4.97;;;3.00;;
17727;SDS011;8984;49.268;12.302;2023-12-20T14:19:04;5.53;;;3.20;;
17727;SDS011;8984;49.268;12.302;2023-12-20T14:21:33;4.43;;;2.73;;
17727;SDS011;8984;49.268;12.302;2023-12-20T14:24:02;4.70;;;2.80;;
17727;SDS011;8984;49.268;12.302;2023-12-20T14:26:35;4.00;;;2.80;;
17727;SDS011;8984;49.268;12.302;2023-12-20T14:29:16;5.77;;;2.73;;
17727;SDS011;8984;49.268;12.302;2023-12-20T14:31:45;9.27;;;6.57;;
17727;SDS011;8984;49.268;12.302;2023-12-20T14:34:15;4.93;;;2.87;;
17727;SDS011;8984;49.268;12.302;2023-12-20T14:37:17;6.23;;;2.80;;
17727;SDS011;8984;49.268;12.302;2023-12-20T14:39:44;3.90;;;2.70;;
17727;SDS011;8984;49.268;12.302;2023-12-20T14:42:11;3.47;;;3.10;;
17727;SDS011;8984;49.268;12.302;2023-12-20T14:44:39;3.97;;;2.83;;
17727;SDS011;8984;49.268;12.302;2023-12-20T14:47:05;4.53;;;2.97;;
17727;SDS011;8984;49.268;12.302;2023-12-20T14:49:32;3.60;;;3.00;;
17727;SDS011;8984;49.268;12.302;2023-12-20T14:52:00;5.17;;;2.80;;
17727;SDS011;8984;49.268;12.302;2023-12-20T14:54:32;6.53;;;2.60;;
17727;SDS011;8984;49.268;12.302;2023-12-20T14:57:01;3.83;;;2.30;;
17727;SDS011;8984;49.268;12.302;2023-12-20T14:59:30;4.63;;;2.67;;
17727;SDS011;8984;49.268;12.302;2023-12-20T15:02:00;2.47;;;2.27;;
17727;SDS011;8984;49.268;12.302;2023-12-20T15:04:31;7.27;;;2.80;;
17727;SDS011;8984;49.268;12.302;2023-12-20T15:07:01;6.77;;;2.50;;
17727;SDS011;8984;49.268;12.302;2023-12-20T15:09:34;3.93;;;2.63;;
17727;SDS011;8984;49.268;12.302;2023-12-20T15:12:11;5.23;;;2.83;;
17727;SDS011;8984;49.268;12.302;2023-12-20T15:14:48;5.27;;;2.77;;
17727;SDS011;8984;49.268;12.302;2023-12-20T15:17:21;4.97;;;2.67;;
17727;SDS011;8984;49.268;12.302;2023-12-20T15:19:52;4.20;;;2.80;;
17727;SDS011;8984;49.268;12.302;2023-12-20T15:22:20;6.57;;;2.70;;
17727;SDS011;8984;49.268;12.302;2023-12-20T15:24:51;5.07;;;2.93;;
17727;SDS011;8984;49.268;12.302;2023-12-20T15:27:31;7.77;;;2.43;;
17727;SDS011;8984;49.268;12.302;2023-12-20T15:30:32;7.47;;;2.37;;
17727;SDS011;8984;49.268;12.302;2023-12-20T15:33:01;4.50;;;2.47;;
17727;SDS011;8984;49.268;12.302;2023-12-20T15:35:29;6.33;;;2.53;;
17727;SDS011;8984;49.268;12.302;2023-12-20T15:37:58;6.73;;;3.00;;
17727;SDS011;8984;49.268;12.302;2023-12-20T15:40:30;5.10;;;3.17;;
17727;SDS011;8984;49.268;12.302;2023-12-20T15:43:03;5.27;;;2.90;;